sensor_id;sensor_type;location;lat;lon;timestamp;P1;durP1;ratioP1;P2;durP2;ratioP2
35522;SDS011;61478;50.820;4.330;2023-09-19T00:02:16;13.85;;;3.88;;
35522;SDS011;61478;50.820;4.330;2023-09-19T00:04:42;12.93;;;3.58;;
35522;SDS011;61478;50.820;4.330;2023-09-19T00:07:08;16.85;;;3.83;;
35522;SDS011;61478;50.820;4.330;2023-09-19T00:09:34;14.50;;;3.92;;
35522;SDS011;61478;50.820;4.330;2023-09-19T00:12:06;17.33;;;4.18;;
35522;SDS011;61478;50.820;4.330;2023-09-19T00:14:34;14.35;;;3.40;;
35522;SDS011;61478;50.820;4.330;2023-09-19T00:17:03;15.65;;;3.95;;
35522;SDS011;61478;50.820;4.330;2023-09-19T00:19:34;17.80;;;4.22;;
35522;SDS011;61478;50.820;4.330;2023-09-19T00:22:00;14.40;;;4.57;;
35522;SDS011;61478;50.820;4.330;2023-09-19T00:24:27;13.35;;;3.67;;
35522;SDS011;61478;50.820;4.330;2023-09-19T00:26:53;16.50;;;4.25;;
35522;SDS011;61478;50.820;4.330;2023-09-19T00:29:21;13.55;;;3.80;;
35522;SDS011;61478;50.820;4.330;2023-09-19T00:31:48;18.83;;;3.80;;
35522;SDS011;61478;50.820;4.330;2023-09-19T00:34:15;15.32;;;4.03;;
35522;SDS011;61478;50.820;4.330;2023-09-19T00:36:41;23.60;;;4.20;;
35522;SDS011;61478;50.820;4.330;2023-09-19T00:39:08;17.50;;;4.72;;
35522;SDS011;61478;50.820;4.330;2023-09-19T00:41:35;17.85;;;4.03;;
35522;SDS011;61478;50.820;4.330;2023-09-19T00:44:02;14.15;;;3.90;;
35522;SDS011;61478;50.820;4.330;2023-09-19T00:46:29;19.70;;;6.53;;
35522;SDS011;61478;50.820;4.330;2023-09-19T00:48:55;16.23;;;3.88;;
35522;SDS011;61478;50.820;4.330;2023-09-19T00:51:22;17.55;;;4.22;;
35522;SDS011;61478;50.820;4.330;2023-09-19T00:53:50;20.88;;;3.78;;
35522;SDS011;61478;50.820;4.330;2023-09-19T00:56:17;21.35;;;4.03;;
35522;SDS011;61478;50.820;4.330;2023-09-19T00:58:44;16.25;;;3.67;;
35522;SDS011;61478;50.820;4.330;2023-09-19T01:01:12;17.83;;;4.50;;
35522;SDS011;61478;50.820;4.330;2023-09-19T01:03:42;18.05;;;4.30;;
35522;SDS011;61478;50.820;4.330;2023-09-19T01:06:09;21.77;;;4.57;;
35522;SDS011;61478;50.820;4.330;2023-09-19T01:08:35;18.85;;;4.68;;
35522;SDS011;61478;50.820;4.330;2023-09-19T01:11:05;18.25;;;5.00;;
35522;SDS011;61478;50.820;4.330;2023-09-19T01:21:57;19.25;;;3.90;;
35522;SDS011;61478;50.820;4.330;2023-09-19T01:30:11;19.95;;;4.85;;
35522;SDS011;61478;50.820;4.330;2023-09-19T01:32:42;16.25;;;4.53;;
35522;SDS011;61478;50.820;4.330;2023-09-19T01:35:08;19.08;;;4.93;;
35522;SDS011;61478;50.820;4.330;2023-09-19T01:37:37;18.95;;;4.30;;
35522;SDS011;61478;50.820;4.330;2023-09-19T01:40:04;14.93;;;3.92;;
35522;SDS011;61478;50.820;4.330;2023-09-19T01:43:06;15.82;;;3.85;;
35522;SDS011;61478;50.820;4.330;2023-09-19T01:45:59;17.85;;;3.80;;
35522;SDS011;61478;50.820;4.330;2023-09-19T01:48:43;16.30;;;4.03;;
35522;SDS011;61478;50.820;4.330;2023-09-19T01:51:21;16.42;;;4.55;;
35522;SDS011;61478;50.820;4.330;2023-09-19T01:54:08;18.38;;;4.10;;
35522;SDS011;61478;50.820;4.330;2023-09-19T01:56:42;20.13;;;4.80;;
35522;SDS011;61478;50.820;4.330;2023-09-19T01:59:24;15.65;;;3.72;;
35522;SDS011;61478;50.820;4.330;2023-09-19T02:01:53;15.88;;;3.85;;
35522;SDS011;61478;50.820;4.330;2023-09-19T02:04:21;18.88;;;3.85;;
35522;SDS011;61478;50.820;4.330;2023-09-19T02:06:47;14.57;;;4.32;;
35522;SDS011;61478;50.820;4.330;2023-09-19T02:09:13;16.38;;;4.35;;
35522;SDS011;61478;50.820;4.330;2023-09-19T02:11:40;14.75;;;4.28;;
35522;SDS011;61478;50.820;4.330;2023-09-19T02:14:07;16.80;;;4.07;;
35522;SDS011;61478;50.820;4.330;2023-09-19T02:16:34;16.95;;;4.88;;
35522;SDS011;61478;50.820;4.330;2023-09-19T02:19:00;17.13;;;4.43;;
35522;SDS011;61478;50.820;4.330;2023-09-19T02:21:30;16.30;;;4.13;;
35522;SDS011;61478;50.820;4.330;2023-09-19T02:23:56;14.60;;;4.30;;
35522;SDS011;61478;50.820;4.330;2023-09-19T02:26:21;19.65;;;4.80;;
35522;SDS011;61478;50.820;4.330;2023-09-19T02:28:49;19.52;;;5.75;;
35522;SDS011;61478;50.820;4.330;2023-09-19T02:31:15;19.55;;;4.95;;
35522;SDS011;61478;50.820;4.330;2023-09-19T02:33:44;19.02;;;4.13;;
35522;SDS011;61478;50.820;4.330;2023-09-19T02:36:11;18.52;;;4.05;;
35522;SDS011;61478;50.820;4.330;2023-09-19T02:38:37;20.85;;;4.05;;
35522;SDS011;61478;50.820;4.330;2023-09-19T02:41:02;17.63;;;4.55;;
35522;SDS011;61478;50.820;4.330;2023-09-19T02:43:28;21.50;;;4.70;;
35522;SDS011;61478;50.820;4.330;2023-09-19T02:45:54;13.75;;;4.15;;
35522;SDS011;61478;50.820;4.330;2023-09-19T02:48:20;14.55;;;4.43;;
35522;SDS011;61478;50.820;4.330;2023-09-19T02:50:46;17.20;;;4.47;;
35522;SDS011;61478;50.820;4.330;2023-09-19T02:53:14;18.80;;;4.75;;
35522;SDS011;61478;50.820;4.330;2023-09-19T02:55:40;22.23;;;5.03;;
35522;SDS011;61478;50.820;4.330;2023-09-19T02:58:06;16.40;;;4.32;;
35522;SDS011;61478;50.820;4.330;2023-09-19T03:00:40;17.10;;;4.38;;
35522;SDS011;61478;50.820;4.330;2023-09-19T03:03:07;15.18;;;4.72;;
35522;SDS011;61478;50.820;4.330;2023-09-19T03:05:33;16.83;;;4.10;;
35522;SDS011;61478;50.820;4.330;2023-09-19T03:07:59;17.13;;;4.90;;
35522;SDS011;61478;50.820;4.330;2023-09-19T03:10:26;17.23;;;4.28;;
35522;SDS011;61478;50.820;4.330;2023-09-19T03:12:53;16.00;;;3.97;;
35522;SDS011;61478;50.820;4.330;2023-09-19T03:15:19;17.15;;;4.03;;
35522;SDS011;61478;50.820;4.330;2023-09-19T03:17:46;14.68;;;4.35;;
35522;SDS011;61478;50.820;4.330;2023-09-19T03:20:13;16.42;;;4.60;;
35522;SDS011;61478;50.820;4.330;2023-09-19T03:22:39;16.45;;;4.20;;
35522;SDS011;61478;50.820;4.330;2023-09-19T03:25:06;14.50;;;4.00;;
35522;SDS011;61478;50.820;4.330;2023-09-19T03:27:36;14.15;;;4.22;;
35522;SDS011;61478;50.820;4.330;2023-09-19T03:30:05;12.93;;;4.30;;
35522;SDS011;61478;50.820;4.330;2023-09-19T03:32:47;12.68;;;4.43;;
35522;SDS011;61478;50.820;4.330;2023-09-19T03:35:15;15.10;;;4.38;;
35522;SDS011;61478;50.820;4.330;2023-09-19T03:37:42;17.42;;;4.32;;
35522;SDS011;61478;50.820;4.330;2023-09-19T03:40:11;16.65;;;4.70;;
35522;SDS011;61478;50.820;4.330;2023-09-19T03:42:38;17.17;;;5.00;;
35522;SDS011;61478;50.820;4.330;2023-09-19T03:45:05;17.17;;;4.32;;
35522;SDS011;61478;50.820;4.330;2023-09-19T03:47:32;16.25;;;4.22;;
35522;SDS011;61478;50.820;4.330;2023-09-19T03:49:58;16.38;;;4.47;;
35522;SDS011;61478;50.820;4.330;2023-09-19T03:52:24;20.83;;;4.65;;
35522;SDS011;61478;50.820;4.330;2023-09-19T03:54:50;17.00;;;4.80;;
35522;SDS011;61478;50.820;4.330;2023-09-19T03:57:15;17.30;;;4.20;;
35522;SDS011;61478;50.820;4.330;2023-09-19T03:59:45;20.08;;;4.50;;
35522;SDS011;61478;50.820;4.330;2023-09-19T04:02:12;24.25;;;4.57;;
35522;SDS011;61478;50.820;4.330;2023-09-19T04:04:47;14.95;;;5.20;;
35522;SDS011;61478;50.820;4.330;2023-09-19T04:07:13;18.73;;;3.70;;
35522;SDS011;61478;50.820;4.330;2023-09-19T04:09:39;13.80;;;3.90;;
35522;SDS011;61478;50.820;4.330;2023-09-19T04:12:05;20.90;;;4.50;;
35522;SDS011;61478;50.820;4.330;2023-09-19T04:14:31;21.52;;;3.80;;
35522;SDS011;61478;50.820;4.330;2023-09-19T04:16:56;19.88;;;3.95;;
35522;SDS011;61478;50.820;4.330;2023-09-19T04:19:22;17.70;;;4.18;;
35522;SDS011;61478;50.820;4.330;2023-09-19T04:21:48;13.85;;;4.05;;
35522;SDS011;61478;50.820;4.330;2023-09-19T04:24:14;14.82;;;4.25;;
35522;SDS011;61478;50.820;4.330;2023-09-19T04:26:39;25.50;;;4.85;;
35522;SDS011;61478;50.820;4.330;2023-09-19T04:29:05;19.02;;;4.47;;
35522;SDS011;61478;50.820;4.330;2023-09-19T04:31:31;12.23;;;3.42;;
35522;SDS011;61478;50.820;4.330;2023-09-19T04:33:57;21.80;;;5.03;;
35522;SDS011;61478;50.820;4.330;2023-09-19T04:36:28;17.25;;;4.00;;
35522;SDS011;61478;50.820;4.330;2023-09-19T04:38:55;13.55;;;3.80;;
35522;SDS011;61478;50.820;4.330;2023-09-19T04:41:20;14.82;;;4.35;;
35522;SDS011;61478;50.820;4.330;2023-09-19T04:43:47;17.60;;;4.10;;
35522;SDS011;61478;50.820;4.330;2023-09-19T04:46:14;17.27;;;4.47;;
35522;SDS011;61478;50.820;4.330;2023-09-19T04:48:40;19.38;;;4.30;;
35522;SDS011;61478;50.820;4.330;2023-09-19T04:51:06;18.58;;;4.38;;
35522;SDS011;61478;50.820;4.330;2023-09-19T04:53:32;14.95;;;3.85;;
35522;SDS011;61478;50.820;4.330;2023-09-19T04:55:58;14.95;;;4.10;;
35522;SDS011;61478;50.820;4.330;2023-09-19T04:58:24;23.95;;;4.55;;
35522;SDS011;61478;50.820;4.330;2023-09-19T05:00:50;21.60;;;4.03;;
35522;SDS011;61478;50.820;4.330;2023-09-19T05:03:16;20.48;;;4.50;;
35522;SDS011;61478;50.820;4.330;2023-09-19T05:05:42;20.38;;;4.28;;
35522;SDS011;61478;50.820;4.330;2023-09-19T05:08:08;16.33;;;4.93;;
35522;SDS011;61478;50.820;4.330;2023-09-19T05:10:35;19.48;;;4.47;;
35522;SDS011;61478;50.820;4.330;2023-09-19T05:13:04;22.27;;;4.53;;
35522;SDS011;61478;50.820;4.330;2023-09-19T05:15:30;16.63;;;3.92;;
35522;SDS011;61478;50.820;4.330;2023-09-19T05:17:56;16.17;;;4.57;;
35522;SDS011;61478;50.820;4.330;2023-09-19T05:20:22;19.30;;;4.40;;
35522;SDS011;61478;50.820;4.330;2023-09-19T05:23:05;19.65;;;4.72;;
35522;SDS011;61478;50.820;4.330;2023-09-19T05:25:36;14.38;;;4.05;;
35522;SDS011;61478;50.820;4.330;2023-09-19T05:28:04;27.60;;;4.55;;
35522;SDS011;61478;50.820;4.330;2023-09-19T05:30:31;17.55;;;4.22;;
35522;SDS011;61478;50.820;4.330;2023-09-19T05:32:57;17.92;;;4.15;;
35522;SDS011;61478;50.820;4.330;2023-09-19T05:35:24;17.92;;;3.95;;
35522;SDS011;61478;50.820;4.330;2023-09-19T05:37:51;13.48;;;3.55;;
35522;SDS011;61478;50.820;4.330;2023-09-19T05:40:18;15.40;;;3.65;;
35522;SDS011;61478;50.820;4.330;2023-09-19T05:42:44;16.88;;;4.20;;
35522;SDS011;61478;50.820;4.330;2023-09-19T05:45:11;23.58;;;4.70;;
35522;SDS011;61478;50.820;4.330;2023-09-19T05:47:38;16.98;;;4.30;;
35522;SDS011;61478;50.820;4.330;2023-09-19T05:50:10;24.55;;;4.45;;
35522;SDS011;61478;50.820;4.330;2023-09-19T05:52:37;20.30;;;4.32;;
35522;SDS011;61478;50.820;4.330;2023-09-19T05:55:06;28.98;;;5.55;;
35522;SDS011;61478;50.820;4.330;2023-09-19T05:57:33;15.70;;;4.20;;
35522;SDS011;61478;50.820;4.330;2023-09-19T06:00:04;17.05;;;4.38;;
35522;SDS011;61478;50.820;4.330;2023-09-19T06:02:36;23.13;;;4.65;;
35522;SDS011;61478;50.820;4.330;2023-09-19T06:05:04;22.67;;;4.28;;
35522;SDS011;61478;50.820;4.330;2023-09-19T06:07:31;19.92;;;4.10;;
35522;SDS011;61478;50.820;4.330;2023-09-19T06:10:02;23.75;;;4.25;;
35522;SDS011;61478;50.820;4.330;2023-09-19T06:12:31;16.17;;;4.13;;
35522;SDS011;61478;50.820;4.330;2023-09-19T06:14:58;18.30;;;4.15;;
35522;SDS011;61478;50.820;4.330;2023-09-19T06:17:24;16.67;;;4.13;;
35522;SDS011;61478;50.820;4.330;2023-09-19T06:19:53;21.23;;;4.07;;
35522;SDS011;61478;50.820;4.330;2023-09-19T06:22:20;15.07;;;3.72;;
35522;SDS011;61478;50.820;4.330;2023-09-19T06:24:46;17.70;;;3.83;;
35522;SDS011;61478;50.820;4.330;2023-09-19T06:27:13;21.23;;;4.50;;
35522;SDS011;61478;50.820;4.330;2023-09-19T06:29:39;22.65;;;4.55;;
35522;SDS011;61478;50.820;4.330;2023-09-19T06:32:08;19.58;;;4.22;;
35522;SDS011;61478;50.820;4.330;2023-09-19T06:34:35;18.17;;;4.38;;
35522;SDS011;61478;50.820;4.330;2023-09-19T06:37:01;17.50;;;3.58;;
35522;SDS011;61478;50.820;4.330;2023-09-19T06:39:28;21.95;;;4.40;;
35522;SDS011;61478;50.820;4.330;2023-09-19T06:41:54;21.45;;;4.07;;
35522;SDS011;61478;50.820;4.330;2023-09-19T06:44:20;17.30;;;3.53;;
35522;SDS011;61478;50.820;4.330;2023-09-19T06:46:49;19.25;;;4.57;;
35522;SDS011;61478;50.820;4.330;2023-09-19T06:49:16;19.45;;;4.32;;
35522;SDS011;61478;50.820;4.330;2023-09-19T06:51:42;15.95;;;3.88;;
35522;SDS011;61478;50.820;4.330;2023-09-19T06:54:09;23.30;;;4.88;;
35522;SDS011;61478;50.820;4.330;2023-09-19T06:56:35;26.33;;;5.18;;
35522;SDS011;61478;50.820;4.330;2023-09-19T06:59:01;18.27;;;4.13;;
35522;SDS011;61478;50.820;4.330;2023-09-19T07:01:28;18.02;;;4.03;;
35522;SDS011;61478;50.820;4.330;2023-09-19T07:03:54;15.25;;;3.60;;
35522;SDS011;61478;50.820;4.330;2023-09-19T07:06:20;20.30;;;3.83;;
35522;SDS011;61478;50.820;4.330;2023-09-19T07:08:46;23.05;;;4.15;;
35522;SDS011;61478;50.820;4.330;2023-09-19T07:11:12;15.02;;;4.55;;
35522;SDS011;61478;50.820;4.330;2023-09-19T07:13:38;17.52;;;4.03;;
35522;SDS011;61478;50.820;4.330;2023-09-19T07:16:04;20.00;;;4.47;;
35522;SDS011;61478;50.820;4.330;2023-09-19T07:18:30;21.00;;;4.45;;
35522;SDS011;61478;50.820;4.330;2023-09-19T07:20:57;19.48;;;4.50;;
35522;SDS011;61478;50.820;4.330;2023-09-19T07:23:30;26.23;;;4.95;;
35522;SDS011;61478;50.820;4.330;2023-09-19T07:26:00;20.00;;;4.55;;
35522;SDS011;61478;50.820;4.330;2023-09-19T07:28:26;20.83;;;5.15;;
35522;SDS011;61478;50.820;4.330;2023-09-19T07:30:53;17.15;;;3.78;;
35522;SDS011;61478;50.820;4.330;2023-09-19T07:33:19;20.48;;;4.80;;
35522;SDS011;61478;50.820;4.330;2023-09-19T07:35:46;17.90;;;4.65;;
35522;SDS011;61478;50.820;4.330;2023-09-19T07:38:12;19.98;;;4.38;;
35522;SDS011;61478;50.820;4.330;2023-09-19T07:40:38;25.40;;;4.97;;
35522;SDS011;61478;50.820;4.330;2023-09-19T07:43:04;25.77;;;4.85;;
35522;SDS011;61478;50.820;4.330;2023-09-19T07:45:31;23.50;;;5.65;;
35522;SDS011;61478;50.820;4.330;2023-09-19T07:47:58;21.58;;;4.85;;
35522;SDS011;61478;50.820;4.330;2023-09-19T07:50:26;18.60;;;3.92;;
35522;SDS011;61478;50.820;4.330;2023-09-19T07:52:52;20.40;;;4.90;;
35522;SDS011;61478;50.820;4.330;2023-09-19T07:55:21;26.10;;;5.07;;
35522;SDS011;61478;50.820;4.330;2023-09-19T07:57:54;20.25;;;4.10;;
35522;SDS011;61478;50.820;4.330;2023-09-19T08:00:19;29.90;;;6.15;;
35522;SDS011;61478;50.820;4.330;2023-09-19T08:02:45;15.27;;;3.55;;
35522;SDS011;61478;50.820;4.330;2023-09-19T08:05:13;23.27;;;4.47;;
35522;SDS011;61478;50.820;4.330;2023-09-19T08:07:44;18.33;;;4.18;;
35522;SDS011;61478;50.820;4.330;2023-09-19T08:10:13;30.73;;;5.78;;
35522;SDS011;61478;50.820;4.330;2023-09-19T08:12:41;25.45;;;5.35;;
35522;SDS011;61478;50.820;4.330;2023-09-19T08:15:12;21.33;;;5.07;;
35522;SDS011;61478;50.820;4.330;2023-09-19T08:17:45;21.88;;;4.63;;
35522;SDS011;61478;50.820;4.330;2023-09-19T08:20:11;17.45;;;5.00;;
35522;SDS011;61478;50.820;4.330;2023-09-19T08:22:43;17.20;;;4.10;;
35522;SDS011;61478;50.820;4.330;2023-09-19T08:25:13;27.20;;;5.93;;
35522;SDS011;61478;50.820;4.330;2023-09-19T08:27:41;30.33;;;4.50;;
35522;SDS011;61478;50.820;4.330;2023-09-19T08:30:09;21.10;;;4.18;;
35522;SDS011;61478;50.820;4.330;2023-09-19T08:32:35;17.23;;;4.68;;
35522;SDS011;61478;50.820;4.330;2023-09-19T08:35:01;24.63;;;4.90;;
35522;SDS011;61478;50.820;4.330;2023-09-19T08:37:29;24.17;;;4.13;;
35522;SDS011;61478;50.820;4.330;2023-09-19T08:39:55;15.85;;;4.32;;
35522;SDS011;61478;50.820;4.330;2023-09-19T08:42:21;19.38;;;4.63;;
35522;SDS011;61478;50.820;4.330;2023-09-19T08:44:50;20.52;;;3.78;;
35522;SDS011;61478;50.820;4.330;2023-09-19T08:47:16;21.02;;;3.72;;
35522;SDS011;61478;50.820;4.330;2023-09-19T08:50:18;16.58;;;3.65;;
35522;SDS011;61478;50.820;4.330;2023-09-19T08:53:00;17.70;;;4.40;;
35522;SDS011;61478;50.820;4.330;2023-09-19T08:55:33;12.50;;;4.63;;
35522;SDS011;61478;50.820;4.330;2023-09-19T08:58:00;21.27;;;4.97;;
35522;SDS011;61478;50.820;4.330;2023-09-19T09:00:29;17.60;;;4.00;;
35522;SDS011;61478;50.820;4.330;2023-09-19T09:02:56;18.23;;;4.22;;
35522;SDS011;61478;50.820;4.330;2023-09-19T09:05:24;18.73;;;4.00;;
35522;SDS011;61478;50.820;4.330;2023-09-19T09:07:51;18.13;;;3.90;;
35522;SDS011;61478;50.820;4.330;2023-09-19T09:10:21;21.20;;;3.97;;
35522;SDS011;61478;50.820;4.330;2023-09-19T09:12:57;20.15;;;4.45;;
35522;SDS011;61478;50.820;4.330;2023-09-19T09:15:24;20.65;;;4.18;;
35522;SDS011;61478;50.820;4.330;2023-09-19T09:17:50;23.35;;;4.32;;
35522;SDS011;61478;50.820;4.330;2023-09-19T09:20:20;11.73;;;3.35;;
35522;SDS011;61478;50.820;4.330;2023-09-19T09:22:53;11.02;;;3.35;;
35522;SDS011;61478;50.820;4.330;2023-09-19T09:25:20;17.23;;;3.92;;
35522;SDS011;61478;50.820;4.330;2023-09-19T09:28:01;20.15;;;4.32;;
35522;SDS011;61478;50.820;4.330;2023-09-19T09:30:36;16.58;;;3.92;;
35522;SDS011;61478;50.820;4.330;2023-09-19T09:33:12;16.15;;;4.38;;
35522;SDS011;61478;50.820;4.330;2023-09-19T09:38:29;11.52;;;3.80;;
35522;SDS011;61478;50.820;4.330;2023-09-19T09:40:59;22.17;;;5.80;;
35522;SDS011;61478;50.820;4.330;2023-09-19T09:43:35;19.67;;;3.78;;
35522;SDS011;61478;50.820;4.330;2023-09-19T09:46:13;17.98;;;3.63;;
35522;SDS011;61478;50.820;4.330;2023-09-19T09:49:07;10.88;;;3.10;;
35522;SDS011;61478;50.820;4.330;2023-09-19T09:51:50;15.32;;;2.88;;
35522;SDS011;61478;50.820;4.330;2023-09-19T09:54:28;11.20;;;3.22;;
35522;SDS011;61478;50.820;4.330;2023-09-19T09:57:04;22.85;;;3.40;;
35522;SDS011;61478;50.820;4.330;2023-09-19T10:02:38;8.38;;;2.65;;
35522;SDS011;61478;50.820;4.330;2023-09-19T10:05:17;12.75;;;3.42;;
35522;SDS011;61478;50.820;4.330;2023-09-19T10:07:53;21.27;;;3.72;;
35522;SDS011;61478;50.820;4.330;2023-09-19T10:10:33;22.63;;;4.03;;
35522;SDS011;61478;50.820;4.330;2023-09-19T10:13:23;18.40;;;4.10;;
35522;SDS011;61478;50.820;4.330;2023-09-19T10:15:54;21.27;;;3.65;;
35522;SDS011;61478;50.820;4.330;2023-09-19T10:18:25;14.52;;;3.72;;
35522;SDS011;61478;50.820;4.330;2023-09-19T10:20:54;17.83;;;4.20;;
35522;SDS011;61478;50.820;4.330;2023-09-19T10:23:22;17.10;;;3.10;;
35522;SDS011;61478;50.820;4.330;2023-09-19T10:25:51;17.90;;;2.60;;
35522;SDS011;61478;50.820;4.330;2023-09-19T10:28:17;12.23;;;2.65;;
35522;SDS011;61478;50.820;4.330;2023-09-19T10:30:47;23.58;;;4.10;;
35522;SDS011;61478;50.820;4.330;2023-09-19T10:33:18;22.13;;;3.58;;
35522;SDS011;61478;50.820;4.330;2023-09-19T10:35:47;14.43;;;2.95;;
35522;SDS011;61478;50.820;4.330;2023-09-19T10:38:19;15.02;;;2.58;;
35522;SDS011;61478;50.820;4.330;2023-09-19T10:40:51;16.50;;;3.33;;
35522;SDS011;61478;50.820;4.330;2023-09-19T10:43:29;10.13;;;3.53;;
35522;SDS011;61478;50.820;4.330;2023-09-19T10:45:57;11.85;;;3.35;;
35522;SDS011;61478;50.820;4.330;2023-09-19T10:48:29;10.25;;;3.50;;
35522;SDS011;61478;50.820;4.330;2023-09-19T10:51:10;20.38;;;3.67;;
35522;SDS011;61478;50.820;4.330;2023-09-19T10:53:41;10.60;;;2.95;;
35522;SDS011;61478;50.820;4.330;2023-09-19T10:56:30;9.77;;;2.33;;
35522;SDS011;61478;50.820;4.330;2023-09-19T10:59:08;10.10;;;2.67;;
35522;SDS011;61478;50.820;4.330;2023-09-19T11:01:50;11.23;;;3.25;;
35522;SDS011;61478;50.820;4.330;2023-09-19T11:15:06;18.83;;;2.95;;
35522;SDS011;61478;50.820;4.330;2023-09-19T11:17:40;12.02;;;2.83;;
35522;SDS011;61478;50.820;4.330;2023-09-19T11:30:43;10.73;;;2.33;;
35522;SDS011;61478;50.820;4.330;2023-09-19T11:33:17;10.60;;;2.00;;
35522;SDS011;61478;50.820;4.330;2023-09-19T11:35:58;9.05;;;1.77;;
35522;SDS011;61478;50.820;4.330;2023-09-19T11:46:34;14.68;;;2.10;;
35522;SDS011;61478;50.820;4.330;2023-09-19T11:49:32;8.82;;;2.20;;
35522;SDS011;61478;50.820;4.330;2023-09-19T11:51:59;10.98;;;1.90;;
35522;SDS011;61478;50.820;4.330;2023-09-19T11:54:26;7.50;;;2.35;;
35522;SDS011;61478;50.820;4.330;2023-09-19T11:56:57;17.33;;;2.75;;
35522;SDS011;61478;50.820;4.330;2023-09-19T11:59:24;13.57;;;2.63;;
35522;SDS011;61478;50.820;4.330;2023-09-19T12:01:58;11.23;;;2.70;;
35522;SDS011;61478;50.820;4.330;2023-09-19T12:04:37;11.30;;;2.20;;
35522;SDS011;61478;50.820;4.330;2023-09-19T12:09:40;13.95;;;2.63;;
35522;SDS011;61478;50.820;4.330;2023-09-19T12:12:33;9.75;;;2.60;;
35522;SDS011;61478;50.820;4.330;2023-09-19T12:14:58;9.98;;;1.85;;
35522;SDS011;61478;50.820;4.330;2023-09-19T12:17:37;7.75;;;2.08;;
35522;SDS011;61478;50.820;4.330;2023-09-19T12:20:07;8.55;;;2.25;;
35522;SDS011;61478;50.820;4.330;2023-09-19T12:22:42;4.60;;;1.67;;
35522;SDS011;61478;50.820;4.330;2023-09-19T12:25:09;9.05;;;2.05;;
35522;SDS011;61478;50.820;4.330;2023-09-19T12:30:09;11.80;;;1.95;;
35522;SDS011;61478;50.820;4.330;2023-09-19T12:32:39;8.15;;;1.80;;
35522;SDS011;61478;50.820;4.330;2023-09-19T12:35:09;16.63;;;2.80;;
35522;SDS011;61478;50.820;4.330;2023-09-19T12:37:44;19.08;;;2.53;;
35522;SDS011;61478;50.820;4.330;2023-09-19T12:40:13;10.73;;;1.85;;
35522;SDS011;61478;50.820;4.330;2023-09-19T12:42:45;9.10;;;2.30;;
35522;SDS011;61478;50.820;4.330;2023-09-19T12:45:12;9.02;;;2.60;;
35522;SDS011;61478;50.820;4.330;2023-09-19T12:47:40;8.45;;;1.67;;
35522;SDS011;61478;50.820;4.330;2023-09-19T12:50:26;14.02;;;2.97;;
35522;SDS011;61478;50.820;4.330;2023-09-19T12:52:55;8.85;;;2.38;;
35522;SDS011;61478;50.820;4.330;2023-09-19T12:55:27;9.18;;;2.33;;
35522;SDS011;61478;50.820;4.330;2023-09-19T12:58:03;16.60;;;2.23;;
35522;SDS011;61478;50.820;4.330;2023-09-19T13:00:41;10.73;;;1.95;;
35522;SDS011;61478;50.820;4.330;2023-09-19T13:03:13;6.63;;;1.90;;
35522;SDS011;61478;50.820;4.330;2023-09-19T13:05:48;8.45;;;1.55;;
35522;SDS011;61478;50.820;4.330;2023-09-19T13:08:20;10.73;;;1.75;;
35522;SDS011;61478;50.820;4.330;2023-09-19T13:13:41;9.90;;;1.98;;
35522;SDS011;61478;50.820;4.330;2023-09-19T13:16:19;9.27;;;1.73;;
35522;SDS011;61478;50.820;4.330;2023-09-19T13:18:51;8.88;;;1.95;;
35522;SDS011;61478;50.820;4.330;2023-09-19T13:21:27;13.93;;;2.00;;
35522;SDS011;61478;50.820;4.330;2023-09-19T13:24:18;12.43;;;2.95;;
35522;SDS011;61478;50.820;4.330;2023-09-19T13:26:45;12.30;;;2.80;;
35522;SDS011;61478;50.820;4.330;2023-09-19T13:29:11;15.70;;;2.30;;
35522;SDS011;61478;50.820;4.330;2023-09-19T13:31:37;10.95;;;2.05;;
35522;SDS011;61478;50.820;4.330;2023-09-19T13:34:06;8.95;;;2.13;;
35522;SDS011;61478;50.820;4.330;2023-09-19T13:36:32;11.15;;;2.22;;
35522;SDS011;61478;50.820;4.330;2023-09-19T13:38:58;6.78;;;2.10;;
35522;SDS011;61478;50.820;4.330;2023-09-19T13:41:25;8.98;;;2.33;;
35522;SDS011;61478;50.820;4.330;2023-09-19T13:43:51;12.60;;;2.22;;
35522;SDS011;61478;50.820;4.330;2023-09-19T13:46:17;7.82;;;2.42;;
35522;SDS011;61478;50.820;4.330;2023-09-19T13:48:50;12.90;;;2.70;;
35522;SDS011;61478;50.820;4.330;2023-09-19T13:51:19;9.25;;;2.50;;
35522;SDS011;61478;50.820;4.330;2023-09-19T13:53:48;6.32;;;2.00;;
35522;SDS011;61478;50.820;4.330;2023-09-19T13:56:14;11.30;;;2.92;;
35522;SDS011;61478;50.820;4.330;2023-09-19T13:58:40;11.48;;;2.00;;
35522;SDS011;61478;50.820;4.330;2023-09-19T14:01:07;7.15;;;2.33;;
35522;SDS011;61478;50.820;4.330;2023-09-19T14:03:37;11.27;;;2.40;;
35522;SDS011;61478;50.820;4.330;2023-09-19T14:06:11;8.82;;;2.17;;
35522;SDS011;61478;50.820;4.330;2023-09-19T14:08:46;7.05;;;2.10;;
35522;SDS011;61478;50.820;4.330;2023-09-19T14:11:13;6.95;;;1.98;;
35522;SDS011;61478;50.820;4.330;2023-09-19T14:13:39;7.53;;;2.42;;
35522;SDS011;61478;50.820;4.330;2023-09-19T14:16:07;6.95;;;2.08;;
35522;SDS011;61478;50.820;4.330;2023-09-19T14:18:36;10.27;;;2.80;;
35522;SDS011;61478;50.820;4.330;2023-09-19T14:21:03;12.60;;;2.72;;
35522;SDS011;61478;50.820;4.330;2023-09-19T14:23:31;10.20;;;2.80;;
35522;SDS011;61478;50.820;4.330;2023-09-19T14:26:01;13.65;;;2.33;;
35522;SDS011;61478;50.820;4.330;2023-09-19T14:28:27;7.28;;;2.08;;
35522;SDS011;61478;50.820;4.330;2023-09-19T14:30:55;13.88;;;2.70;;
35522;SDS011;61478;50.820;4.330;2023-09-19T14:33:21;6.13;;;1.90;;
35522;SDS011;61478;50.820;4.330;2023-09-19T14:35:47;8.95;;;2.47;;
35522;SDS011;61478;50.820;4.330;2023-09-19T14:38:13;22.70;;;3.38;;
35522;SDS011;61478;50.820;4.330;2023-09-19T14:40:39;11.80;;;2.55;;
35522;SDS011;61478;50.820;4.330;2023-09-19T14:43:05;12.25;;;1.92;;
35522;SDS011;61478;50.820;4.330;2023-09-19T14:45:35;8.85;;;2.40;;
35522;SDS011;61478;50.820;4.330;2023-09-19T14:48:01;9.93;;;3.17;;
35522;SDS011;61478;50.820;4.330;2023-09-19T14:50:30;11.32;;;2.95;;
35522;SDS011;61478;50.820;4.330;2023-09-19T14:52:56;9.70;;;2.50;;
35522;SDS011;61478;50.820;4.330;2023-09-19T14:55:23;11.52;;;1.98;;
35522;SDS011;61478;50.820;4.330;2023-09-19T14:57:49;12.52;;;2.33;;
35522;SDS011;61478;50.820;4.330;2023-09-19T15:00:17;13.15;;;2.83;;
35522;SDS011;61478;50.820;4.330;2023-09-19T15:02:45;11.75;;;2.45;;
35522;SDS011;61478;50.820;4.330;2023-09-19T15:05:13;8.98;;;2.67;;
35522;SDS011;61478;50.820;4.330;2023-09-19T15:07:40;17.52;;;2.80;;
35522;SDS011;61478;50.820;4.330;2023-09-19T15:10:06;8.82;;;3.03;;
35522;SDS011;61478;50.820;4.330;2023-09-19T15:12:35;12.88;;;3.03;;
35522;SDS011;61478;50.820;4.330;2023-09-19T15:15:03;6.70;;;2.90;;
35522;SDS011;61478;50.820;4.330;2023-09-19T15:17:34;13.35;;;2.85;;
35522;SDS011;61478;50.820;4.330;2023-09-19T15:20:01;7.80;;;2.75;;
35522;SDS011;61478;50.820;4.330;2023-09-19T15:22:28;13.35;;;2.40;;
35522;SDS011;61478;50.820;4.330;2023-09-19T15:24:53;14.30;;;4.35;;
35522;SDS011;61478;50.820;4.330;2023-09-19T15:27:20;9.98;;;2.88;;
35522;SDS011;61478;50.820;4.330;2023-09-19T15:29:46;18.67;;;3.15;;
35522;SDS011;61478;50.820;4.330;2023-09-19T15:32:12;11.73;;;2.95;;
35522;SDS011;61478;50.820;4.330;2023-09-19T15:34:38;19.80;;;3.22;;
35522;SDS011;61478;50.820;4.330;2023-09-19T15:37:04;8.70;;;2.97;;
35522;SDS011;61478;50.820;4.330;2023-09-19T15:39:30;9.35;;;2.53;;
35522;SDS011;61478;50.820;4.330;2023-09-19T15:41:59;7.10;;;2.40;;
35522;SDS011;61478;50.820;4.330;2023-09-19T15:44:25;10.82;;;2.45;;
35522;SDS011;61478;50.820;4.330;2023-09-19T15:46:53;15.15;;;3.50;;